Time;durP1;ratioP1;P1;durP2;ratioP2;P2;SDS_P1;SDS_P2;PMS_P1;PMS_P2;Temp;Humidity;BMP_temperature;BMP_pressure;BME280_temperature;BME280_humidity;BME280_pressure;Samples;Min_cycle;Max_cycle;Signal;HPM_P1;HPM_P2
2023/02/27 00:08:37;;;;;;;5.88;3.67;;;;;;;-1.65;62.97;99229.53;6117052;23;20030;-87
2023/02/27 00:11:11;;;;;;;5.35;3.50;;;;;;;-2.07;62.75;99155.13;6095078;23;20022;-87
2023/02/27 00:17:24;;;;;;;7.00;3.85;;;;;;;-1.99;62.77;99170.66;6183153;23;20005;-87
2023/02/27 00:21:12;;;;;;;6.75;3.83;;;;;;;-1.94;62.50;99184.44;6166452;23;20058;-86
2023/02/27 00:24:07;;;;;;;7.55;3.75;;;;;;;-1.82;62.18;99204.38;6074501;23;20086;-87
2023/02/27 01:54:05;;;;;;;8.15;3.75;;;;;;;-2.19;61.48;99238.84;6179867;23;20025;-87
2023/02/27 01:57:31;;;;;;;;;;;;;;;;;;;;;
2023/02/27 02:03:51;;;;;;;7.15;3.75;;;;;;;-2.07;60.75;99274.97;6154666;23;20021;-88
2023/02/27 02:10:02;;;;;;;8.32;4.50;;;;;;;-1.82;61.45;99354.88;6179881;23;20028;-87
2023/02/27 02:13:19;;;;;;;6.95;4.10;;;;;;;-2.33;61.16;99256.25;6182158;23;20077;-87
2023/02/27 02:20:47;;;;;;;5.60;3.55;;;;;;;-1.71;60.80;99432.63;6205199;23;20021;-88
2023/02/27 02:31:16;;;;;;;7.25;4.15;;;;;;;-1.71;60.99;99434.31;6158718;23;20045;-86
2023/02/27 02:38:57;;;;;;;8.95;3.88;;;;;;;-1.71;61.41;99450.50;6175665;23;20009;-88
2023/02/27 02:42:49;;;;;;;;;;;;;;;;;;;;;
2023/02/27 02:47:11;;;;;;;;;;;;;;;;;;;;;
2023/02/27 02:50:58;;;;;;;6.57;3.67;;;;;;;-1.47;60.61;99469.16;6125564;23;20017;-85
2023/02/27 04:22:02;;;;;;;7.32;4.03;;;;;;;-1.06;60.28;99616.13;6174992;23;20032;-84
2023/02/27 04:24:48;;;;;;;6.30;3.80;;;;;;;-1.14;59.75;99620.13;6153603;23;20035;-83
2023/02/27 04:27:58;;;;;;;7.38;4.43;;;;;;;-1.49;59.10;99570.34;6104376;23;20073;-82
2023/02/27 04:31:39;;;;;;;8.30;4.28;;;;;;;-1.28;59.72;99634.94;6180579;23;20002;-85
2023/02/27 04:34:22;;;;;;;8.65;4.68;;;;;;;-1.24;59.86;99641.91;6128262;23;20032;-86
2023/02/27 04:41:10;;;;;;;8.60;4.28;;;;;;;-1.11;60.17;99663.66;6005048;23;20027;-87
2023/02/27 04:44:16;;;;;;;10.27;4.90;;;;;;;-1.08;59.58;99657.75;6007291;23;20031;-86
2023/02/27 04:47:46;;;;;;;8.20;4.47;;;;;;;-1.42;60.28;99602.91;6032832;23;20089;-86
2023/02/27 04:50:38;;;;;;;7.00;4.15;;;;;;;-0.95;59.44;99672.69;5990349;23;20010;-88
2023/02/27 05:15:40;;;;;;;8.63;4.15;;;;;;;-0.83;60.07;99702.94;6048588;23;20006;-88
2023/02/27 05:59:45;;;;;;;;;;;;;;;;;;;;;
2023/02/27 06:09:54;;;;;;;7.72;4.18;;;;;;;-0.94;59.28;99715.31;6177668;23;20025;-85
2023/02/27 06:12:38;;;;;;;6.13;3.78;;;;;;;-0.76;59.68;99752.56;6125652;23;19997;-84
2023/02/27 06:15:34;;;;;;;7.75;4.28;;;;;;;-1.48;59.53;99663.97;6149376;23;20021;-83
2023/02/27 06:18:58;;;;;;;8.18;4.55;;;;;;;-0.71;59.52;99780.88;6148093;23;20022;-82
2023/02/27 06:29:32;;;;;;;9.55;5.72;;;;;;;-0.92;59.63;99716.25;6130734;23;20044;-84
2023/02/27 06:32:32;;;;;;;9.57;4.82;;;;;;;-1.13;59.49;99669.50;6130751;23;20025;-83
2023/02/27 06:41:48;;;;;;;8.82;3.97;;;;;;;-0.70;59.17;99719.56;6164767;23;20029;-82
2023/02/27 06:44:46;;;;;;;8.38;4.38;;;;;;;-0.55;59.40;99742.25;6131887;23;20080;-85
2023/02/27 06:48:12;;;;;;;;;;;;;;;;;;;;;
2023/02/27 06:56:25;;;;;;;;;;;;;;;;;;;;;
2023/02/27 07:04:53;;;;;;;;;;;;;;;;;;;;;
2023/02/27 07:08:10;;;;;;;7.85;4.05;;;;;;;0.08;59.06;99715.34;5892489;24;20024;-83
2023/02/27 07:10:45;;;;;;;12.05;6.80;;;;;;;0.79;58.93;99826.81;5916417;24;20364;-86
2023/02/27 07:13:12;;;;;;;6.93;3.50;;;;;;;0.53;58.31;99767.97;5899545;24;20024;-84
2023/02/27 07:15:39;;;;;;;6.43;3.67;;;;;;;0.97;57.87;99828.22;6002626;23;20051;-84
2023/02/27 07:18:05;;;;;;;6.30;3.55;;;;;;;0.78;58.46;99807.13;5965406;23;20008;-86
2023/02/27 07:20:40;;;;;;;6.55;4.28;;;;;;;0.65;57.43;99794.78;6007185;23;20019;-85
2023/02/27 07:23:06;;;;;;;7.85;4.50;;;;;;;0.51;57.56;99791.78;6008219;23;20031;-82
2023/02/27 07:25:32;;;;;;;8.07;4.57;;;;;;;0.86;57.47;99856.06;6034351;23;20105;-84
2023/02/27 07:27:58;;;;;;;11.30;3.97;;;;;;;0.82;58.19;99844.84;6075338;23;20018;-81
2023/02/27 07:30:24;;;;;;;7.82;4.45;;;;;;;0.87;57.33;99858.66;6100152;23;20113;-83
2023/02/27 07:32:50;;;;;;;8.57;4.32;;;;;;;0.77;57.40;99848.09;6050333;23;20077;-86
2023/02/27 07:35:17;;;;;;;6.95;3.75;;;;;;;0.65;57.40;99828.06;6051112;23;20022;-84
2023/02/27 07:37:43;;;;;;;5.88;3.60;;;;;;;0.84;57.29;99838.06;6098298;23;20037;-83
2023/02/27 07:40:10;;;;;;;5.63;4.00;;;;;;;1.07;57.13;99868.66;6101451;23;20014;-83
2023/02/27 07:42:37;;;;;;;8.30;3.85;;;;;;;0.78;57.27;99843.00;6074463;23;20029;-84
2023/02/27 07:45:03;;;;;;;6.03;4.03;;;;;;;0.79;57.05;99870.34;6073807;23;20045;-83
2023/02/27 07:47:30;;;;;;;7.97;4.05;;;;;;;0.97;57.82;99882.88;6072715;23;20045;-87
2023/02/27 07:50:17;;;;;;;5.95;3.60;;;;;;;0.90;57.19;99861.34;6026613;23;20484;-84
2023/02/27 07:52:46;;;;;;;9.05;3.70;;;;;;;1.11;57.24;99878.19;6052495;23;20073;-84
2023/02/27 07:55:16;;;;;;;6.75;3.95;;;;;;;0.98;56.80;99846.19;6078399;23;20026;-84
2023/02/27 07:57:44;;;;;;;7.30;4.47;;;;;;;0.72;56.53;99797.56;6056682;23;20018;-83
2023/02/27 08:00:11;;;;;;;8.13;3.88;;;;;;;1.14;56.74;99847.53;6079192;23;20034;-83
2023/02/27 08:02:40;;;;;;;6.63;3.92;;;;;;;1.31;56.14;99865.09;6053080;23;20018;-82
2023/02/27 08:05:09;;;;;;;6.72;3.75;;;;;;;1.11;55.87;99842.31;6101188;23;20054;-83
2023/02/27 08:07:36;;;;;;;7.55;3.78;;;;;;;1.45;55.98;99893.72;6053091;23;20022;-83
2023/02/27 08:10:04;;;;;;;8.52;4.05;;;;;;;1.15;55.84;99862.09;6088906;23;20003;-85
2023/02/27 08:12:33;;;;;;;7.35;3.90;;;;;;;1.02;55.52;99842.91;6071414;23;20086;-85
2023/02/27 08:15:09;;;;;;;6.55;3.65;;;;;;;0.89;56.01;99830.50;6111485;23;20483;-83
2023/02/27 08:17:35;;;;;;;6.35;3.65;;;;;;;1.24;55.74;99881.13;6107252;23;20038;-85
2023/02/27 08:20:16;;;;;;;7.28;3.75;;;;;;;0.87;55.98;99833.03;6105877;23;20019;-85
2023/02/27 08:22:45;;;;;;;6.00;3.28;;;;;;;1.36;55.82;99912.28;6102378;23;20038;-85
2023/02/27 08:25:26;;;;;;;6.05;3.50;;;;;;;1.40;54.83;99910.66;6049866;23;20070;-84
2023/02/27 08:27:53;;;;;;;5.68;3.28;;;;;;;0.89;55.30;99836.53;6101333;23;20022;-84
2023/02/27 08:30:19;;;;;;;6.50;3.45;;;;;;;1.57;55.46;99924.00;6072566;23;20483;-83
2023/02/27 08:32:45;;;;;;;7.82;3.50;;;;;;;1.55;54.98;99931.63;6050620;23;20057;-84
2023/02/27 08:35:11;;;;;;;6.38;3.90;;;;;;;1.64;55.14;99925.94;6079679;23;20018;-83
2023/02/27 08:37:38;;;;;;;4.75;3.10;;;;;;;1.51;54.27;99914.44;6074538;23;20317;-83
2023/02/27 08:40:06;;;;;;;5.25;3.22;;;;;;;1.48;54.58;99902.38;6075568;23;20420;-83
2023/02/27 08:42:32;;;;;;;5.20;3.08;;;;;;;1.46;54.98;99910.84;6076857;23;20025;-83
2023/02/27 08:44:59;;;;;;;7.03;3.28;;;;;;;1.32;54.48;99870.28;6100689;23;20014;-84
2023/02/27 08:47:25;;;;;;;5.65;3.22;;;;;;;1.57;54.95;99909.47;6097052;23;20022;-86
2023/02/27 08:49:51;;;;;;;5.47;3.40;;;;;;;1.78;54.46;99942.59;6072146;23;20352;-82
2023/02/27 08:52:17;;;;;;;5.85;3.30;;;;;;;1.46;54.12;99901.44;6071122;23;20037;-83
2023/02/27 08:54:43;;;;;;;7.40;3.30;;;;;;;1.63;54.57;99947.28;6048377;23;20286;-86
2023/02/27 08:57:09;;;;;;;7.18;3.50;;;;;;;1.29;54.86;99879.56;6024364;23;20065;-84
2023/02/27 08:59:35;;;;;;;6.47;3.15;;;;;;;1.82;54.51;99940.97;6048183;23;20018;-82
2023/02/27 09:02:01;;;;;;;4.72;3.22;;;;;;;1.62;54.37;99912.19;6071801;23;20112;-83
2023/02/27 09:04:28;;;;;;;7.30;3.58;;;;;;;1.52;53.82;99902.47;6095872;23;20033;-83
2023/02/27 09:06:54;;;;;;;4.57;3.10;;;;;;;1.49;53.69;99910.94;6099043;23;20069;-84
2023/02/27 09:09:22;;;;;;;3.63;2.70;;;;;;;1.59;53.38;99938.59;6097799;23;20018;-83
2023/02/27 09:11:50;;;;;;;5.53;3.38;;;;;;;1.01;53.67;99841.16;6095379;23;20108;-82
2023/02/27 09:14:17;;;;;;;5.07;3.17;;;;;;;1.29;53.85;99871.88;6047077;23;20073;-82
2023/02/27 09:16:44;;;;;;;5.30;2.92;;;;;;;1.70;53.63;99941.47;6081902;23;19999;-81
2023/02/27 09:19:11;;;;;;;7.63;3.40;;;;;;;1.94;53.49;99959.31;6119710;23;20010;-83
2023/02/27 09:21:40;;;;;;;5.03;3.38;;;;;;;1.94;53.31;99950.72;6105235;23;20024;-83
2023/02/27 09:24:14;;;;;;;5.13;3.10;;;;;;;1.67;52.34;99905.47;6066039;23;20003;-82
2023/02/27 09:26:40;;;;;;;5.80;2.97;;;;;;;1.68;52.77;99932.88;6088878;23;20028;-85
2023/02/27 09:29:09;;;;;;;4.13;2.72;;;;;;;1.40;52.46;99890.16;6082086;23;20050;-85
2023/02/27 09:31:56;;;;;;;5.03;2.72;;;;;;;1.54;52.39;99929.03;6028613;23;20021;-83
2023/02/27 09:34:25;;;;;;;5.13;3.20;;;;;;;1.82;52.80;99940.97;6080908;23;20037;-83
2023/02/27 09:37:01;;;;;;;4.93;2.83;;;;;;;2.08;52.43;99990.50;6088308;23;20002;-84
2023/02/27 09:39:28;;;;;;;3.05;2.40;;;;;;;2.03;52.12;99986.94;6070806;23;20010;-85
2023/02/27 09:42:33;;;;;;;4.32;2.80;;;;;;;1.83;51.90;99972.66;6116723;23;20018;-82
2023/02/27 09:45:12;;;;;;;4.53;2.78;;;;;;;1.54;52.37;99939.28;6056778;23;20361;-84
2023/02/27 09:47:55;;;;;;;4.78;2.90;;;;;;;1.08;52.21;99878.09;6097774;23;20145;-86
2023/02/27 09:50:44;;;;;;;5.00;2.70;;;;;;;1.76;51.82;100012.66;6073802;23;20042;-84
2023/02/27 09:53:34;;;;;;;3.78;2.28;;;;;;;1.74;52.19;100016.88;6074386;23;20023;-84
2023/02/27 09:56:34;;;;;;;4.30;2.70;;;;;;;1.55;52.16;99994.91;6054239;23;20022;-85
2023/02/27 09:59:23;;;;;;;4.47;3.00;;;;;;;1.88;52.08;100023.28;6057954;23;20050;-84
2023/02/27 10:02:30;;;;;;;4.72;2.97;;;;;;;1.89;52.48;100014.75;6028197;23;20468;-85
2023/02/27 10:05:14;;;;;;;5.50;3.00;;;;;;;1.86;52.20;100024.06;6098429;23;20553;-85
2023/02/27 10:08:00;;;;;;;4.60;3.05;;;;;;;1.56;51.69;99973.56;6048908;23;20119;-83
2023/02/27 10:10:38;;;;;;;4.80;2.70;;;;;;;1.51;52.08;99968.28;6099332;23;20027;-83
2023/02/27 10:13:19;;;;;;;4.53;2.80;;;;;;;1.89;51.70;100024.13;6048155;23;20345;-85
2023/02/27 10:15:48;;;;;;;4.80;2.93;;;;;;;1.62;50.59;100000.25;6076107;23;20508;-85
2023/02/27 10:18:47;;;;;;;6.57;3.40;;;;;;;1.55;51.56;100000.03;6070795;23;20812;-83
2023/02/27 10:21:20;;;;;;;4.63;2.97;;;;;;;1.31;52.25;99958.28;6067809;23;20029;-83
2023/02/27 10:23:56;;;;;;;4.82;3.33;;;;;;;1.86;52.30;100029.19;6074147;23;20113;-85
2023/02/27 10:26:31;;;;;;;5.00;2.92;;;;;;;1.86;51.91;100034.34;6074520;23;20025;-85
2023/02/27 10:29:20;;;;;;;4.22;2.97;;;;;;;1.02;51.94;99904.41;6075437;23;20022;-87
2023/02/27 10:31:52;;;;;;;4.72;3.00;;;;;;;1.72;52.35;100031.34;6099450;23;20478;-84
2023/02/27 10:34:23;;;;;;;5.75;3.38;;;;;;;1.62;52.16;99987.44;6099958;23;20096;-85
2023/02/27 10:36:49;;;;;;;5.15;3.00;;;;;;;1.24;51.83;99925.59;6074230;23;20508;-84
2023/02/27 10:39:20;;;;;;;5.13;3.03;;;;;;;1.90;51.56;100033.56;6074254;23;20045;-85
2023/02/27 10:41:47;;;;;;;6.40;3.35;;;;;;;2.08;51.76;100046.09;6074329;23;20033;-84
2023/02/27 10:44:43;;;;;;;7.22;3.55;;;;;;;1.85;51.73;100010.34;6075694;23;20360;-84
2023/02/27 10:47:23;;;;;;;5.82;3.63;;;;;;;1.91;51.53;100001.94;6076368;23;20046;-85
2023/02/27 10:49:52;;;;;;;4.90;3.30;;;;;;;1.78;51.65;99982.75;6074777;23;20026;-85
2023/02/27 10:52:18;;;;;;;4.43;3.35;;;;;;;2.15;51.41;100027.50;6075406;23;20506;-85
2023/02/27 10:54:45;;;;;;;5.65;3.67;;;;;;;2.45;51.60;100048.88;6103001;23;20030;-82
2023/02/27 10:57:27;;;;;;;5.20;3.10;;;;;;;2.26;51.03;100022.66;6107146;23;20053;-85
2023/02/27 10:59:59;;;;;;;4.70;3.05;;;;;;;2.14;50.71;100025.75;6055109;23;20014;-85
2023/02/27 11:02:38;;;;;;;4.50;2.70;;;;;;;2.19;51.16;100061.81;6083527;23;20057;-84
2023/02/27 11:05:22;;;;;;;3.90;2.40;;;;;;;1.72;50.61;99974.91;6072042;23;20026;-83
2023/02/27 11:07:48;;;;;;;5.55;3.05;;;;;;;1.57;50.75;99944.50;6118128;23;20126;-84
2023/02/27 11:10:18;;;;;;;4.57;2.63;;;;;;;2.32;50.70;100066.47;6081005;23;20085;-81
2023/02/27 11:13:05;;;;;;;4.97;3.20;;;;;;;2.38;50.49;100082.06;6078374;23;20025;-81
2023/02/27 11:15:39;;;;;;;5.15;3.35;;;;;;;2.07;50.20;100023.81;6052051;23;20025;-84
2023/02/27 11:18:35;;;;;;;4.47;3.15;;;;;;;2.42;50.57;100085.63;6099621;23;20090;-83
2023/02/27 11:21:19;;;;;;;6.18;3.47;;;;;;;2.43;50.42;100091.63;6050248;23;20169;-85
2023/02/27 11:23:55;;;;;;;4.95;3.20;;;;;;;1.79;50.52;99957.16;6027828;23;20121;-85
2023/02/27 11:26:55;;;;;;;6.75;3.10;;;;;;;2.49;50.49;100095.22;6026648;23;20022;-86
2023/02/27 11:29:27;;;;;;;6.95;3.10;;;;;;;2.40;50.70;100098.41;6055211;23;20022;-84
2023/02/27 11:32:02;;;;;;;;;;;;;;;2.17;50.56;100066.94;6100092;23;20028;-86
2023/02/27 11:34:46;;;;;;;5.28;3.03;;;;;;;1.66;50.81;99960.16;6050119;23;20052;-85
2023/02/27 11:37:22;;;;;;;4.72;3.10;;;;;;;2.74;50.62;100095.91;6078680;23;20022;-83
2023/02/27 11:40:13;;;;;;;6.97;3.15;;;;;;;3.05;51.04;100098.44;6078962;23;20066;-84
2023/02/27 11:42:51;;;;;;;7.10;3.20;;;;;;;3.24;50.74;100081.81;6051493;23;20022;-85
2023/02/27 11:45:20;;;;;;;7.32;3.90;;;;;;;3.33;50.26;100086.31;6049538;23;20021;-85
2023/02/27 11:47:59;;;;;;;5.30;3.30;;;;;;;3.04;49.84;100095.03;6050858;23;20019;-85
2023/02/27 11:50:47;;;;;;;4.90;3.30;;;;;;;2.04;50.28;99980.97;6056429;23;20029;-82
2023/02/27 11:53:31;;;;;;;5.72;3.33;;;;;;;2.59;50.32;100105.78;6101093;23;20018;-84
2023/02/27 11:56:05;;;;;;;5.10;3.00;;;;;;;2.39;50.49;100073.53;6050237;23;20022;-84
2023/02/27 11:58:47;;;;;;;5.97;3.42;;;;;;;2.54;49.27;100109.09;6050722;23;20037;-85
2023/02/27 12:02:14;;;;;;;;;;;;;;;;;;;;;
2023/02/27 12:05:08;;;;;;;5.80;3.50;;;;;;;2.33;50.51;100114.44;6054238;23;20550;-85
2023/02/27 12:07:56;;;;;;;6.00;3.05;;;;;;;2.15;50.37;100119.94;6056409;23;20014;-85
2023/02/27 12:10:36;;;;;;;5.03;3.00;;;;;;;2.19;50.84;100120.88;6083133;23;20022;-86
2023/02/27 12:13:54;;;;;;;6.57;3.58;;;;;;;1.70;51.02;100043.25;6055724;23;20022;-82
2023/02/27 12:16:51;;;;;;;6.15;3.70;;;;;;;1.75;50.85;100052.81;6052735;23;20041;-82
2023/02/27 12:19:47;;;;;;;7.20;3.35;;;;;;;2.07;50.90;100122.25;6062164;23;20417;-82
2023/02/27 12:22:34;;;;;;;4.35;3.17;;;;;;;2.11;50.46;100147.19;6066110;23;20014;-82
2023/02/27 12:25:45;;;;;;;;;;;;;;;;;;;;;
2023/02/27 12:28:49;;;;;;;5.18;3.00;;;;;;;1.70;50.89;100157.00;6115108;23;20017;-82
2023/02/27 12:31:34;;;;;;;7.40;3.30;;;;;;;1.67;50.82;100156.03;6094121;23;20023;-84
2023/02/27 12:42:40;;;;;;;5.82;3.15;;;;;;;1.29;51.29;100159.06;5940595;24;20027;-85
2023/02/27 12:45:45;;;;;;;5.88;3.47;;;;;;;1.27;50.91;100165.81;5988171;23;20038;-84
2023/02/27 12:49:06;;;;;;;3.85;2.70;;;;;;;1.22;51.02;100175.94;6101341;23;20018;-83
2023/02/27 12:52:03;;;;;;;4.97;2.97;;;;;;;1.12;51.25;100172.16;5958015;24;20024;-83
2023/02/27 12:54:38;;;;;;;5.47;3.20;;;;;;;1.12;51.37;100176.41;6074864;23;20081;-82
2023/02/27 12:57:11;;;;;;;5.20;3.20;;;;;;;1.04;51.68;100176.13;6075009;23;20018;-85
2023/02/27 13:00:19;;;;;;;5.53;3.65;;;;;;;1.04;51.91;100183.81;6076369;23;20025;-84
2023/02/27 13:03:17;;;;;;;;;;;;;;;;;;;;;
2023/02/27 13:06:22;;;;;;;4.82;3.20;;;;;;;1.04;52.12;100194.06;6098473;23;20078;-86
2023/02/27 13:12:48;;;;;;;6.97;3.20;;;;;;;0.87;52.21;100199.47;6044714;23;20018;-82
2023/02/27 13:15:51;;;;;;;5.43;2.90;;;;;;;0.89;52.04;100200.41;6074010;23;20040;-85
2023/02/27 13:18:51;;;;;;;;;;;;;;;;;;;;;
2023/02/27 13:22:29;;;;;;;6.75;3.30;;;;;;;0.31;52.32;100149.56;6075711;23;20022;-83
2023/02/27 13:25:07;;;;;;;6.13;3.45;;;;;;;0.28;51.91;100166.56;6074948;23;20018;-83
2023/02/27 13:28:07;;;;;;;4.97;3.10;;;;;;;0.58;52.47;100216.31;6076029;23;20287;-85
2023/02/27 13:31:33;;;;;;;4.25;2.72;;;;;;;0.02;51.83;100134.81;6051965;23;20026;-84
2023/02/27 13:35:01;;;;;;;4.82;3.00;;;;;;;-0.45;51.90;100083.50;5879583;24;20026;-85
2023/02/27 13:47:43;;;;;;;6.38;3.55;;;;;;;0.47;51.71;100230.38;5866972;24;20273;-85
2023/02/27 13:55:34;;;;;;;6.13;3.22;;;;;;;0.44;51.39;100233.72;5732031;24;20464;-85
2023/02/27 13:59:15;;;;;;;;;;;;;;;;;;;;;
2023/02/27 14:03:04;;;;;;;6.82;3.35;;;;;;;-0.08;52.49;100161.72;5759655;24;20035;-83
2023/02/27 14:05:48;;;;;;;5.25;3.25;;;;;;;0.37;51.62;100249.63;5919806;24;20072;-85
2023/02/27 14:08:56;;;;;;;4.63;3.10;;;;;;;-0.24;51.52;100172.16;6043044;23;20018;-86
2023/02/27 14:11:38;;;;;;;7.32;3.10;;;;;;;-0.14;51.66;100204.09;6018009;23;20104;-86
2023/02/27 14:14:08;;;;;;;6.25;3.10;;;;;;;0.22;52.37;100260.16;6087779;23;20006;-85
2023/02/27 14:16:42;;;;;;;6.18;3.38;;;;;;;0.22;52.07;100266.13;6086056;23;20045;-84
2023/02/27 14:19:21;;;;;;;6.15;3.80;;;;;;;0.09;51.67;100251.97;6104016;23;20065;-86
2023/02/27 14:22:01;;;;;;;4.93;3.20;;;;;;;-0.25;52.35;100190.84;6064397;23;20017;-85
2023/02/27 14:37:57;;;;;;;;;;;;;;;;;;;;;
2023/02/27 14:50:42;;;;;;;6.35;3.70;;;;;;;-0.86;52.29;100221.53;5839664;24;20052;-85
2023/02/27 14:53:50;;;;;;;7.70;3.67;;;;;;;-0.31;51.89;100312.56;5895905;24;20032;-88
2023/02/27 14:57:09;;;;;;;;;;;;;;;;;;;;;
2023/02/27 15:00:00;;;;;;;6.13;3.20;;;;;;;-0.35;52.13;100322.59;5939485;24;20021;-84
2023/02/27 15:02:44;;;;;;;8.15;4.28;;;;;;;-0.53;52.97;100294.53;5912556;24;20040;-85
2023/02/27 15:05:31;;;;;;;;;;;;;;;-0.37;52.93;100321.66;5888479;24;20020;-84
2023/02/27 15:08:11;;;;;;;6.70;4.03;;;;;;;-1.32;53.10;100207.59;5871155;24;19910;-85
2023/02/27 15:10:47;;;;;;;7.65;3.97;;;;;;;-1.16;52.58;100246.59;5979362;23;20026;-85
2023/02/27 15:13:28;;;;;;;6.90;4.30;;;;;;;-0.71;52.74;100332.97;6047640;23;20470;-85
2023/02/27 15:39:29;;;;;;;6.60;3.95;;;;;;;-1.45;52.83;100275.09;6121242;23;20030;-87
2023/02/27 16:37:54;;;;;;;;;;;;;;;;;;;;;
2023/02/27 16:44:56;;;;;;;6.82;3.88;;;;;;;-0.54;54.51;100472.66;6107680;23;20014;-88
2023/02/27 16:47:56;;;;;;;6.75;4.00;;;;;;;-1.34;53.78;100324.13;6119581;23;20021;-86
2023/02/27 16:51:45;;;;;;;;;;;;;;;;;;;;;
2023/02/27 16:55:10;;;;;;;9.32;4.15;;;;;;;-0.50;53.65;100471.09;6146431;23;20040;-86
2023/02/27 16:57:56;;;;;;;6.95;4.20;;;;;;;-1.33;54.28;100336.09;6138518;23;20021;-86
2023/02/27 17:00:28;;;;;;;7.38;3.92;;;;;;;-0.73;54.21;100439.38;6122966;23;20002;-86
2023/02/27 17:03:18;;;;;;;7.82;3.95;;;;;;;-1.23;54.04;100352.72;6125134;23;20045;-87
2023/02/27 17:05:48;;;;;;;8.10;4.30;;;;;;;-0.81;54.36;100414.31;6099918;23;20033;-86
2023/02/27 17:08:15;;;;;;;7.47;4.30;;;;;;;-1.08;54.09;100393.44;6121543;23;20037;-88
2023/02/27 17:10:49;;;;;;;4.85;3.55;;;;;;;-1.11;54.46;100381.41;6095643;23;20028;-88
2023/02/27 17:13:19;;;;;;;7.05;4.05;;;;;;;-0.99;54.56;100398.97;6093626;23;20109;-86
2023/02/27 17:15:45;;;;;;;7.95;3.88;;;;;;;-0.73;54.26;100462.38;6118269;23;20026;-85
2023/02/27 17:21:50;;;;;;;6.28;3.83;;;;;;;-0.86;54.24;100456.66;6118386;23;20022;-86
2023/02/27 17:24:19;;;;;;;7.75;3.63;;;;;;;-1.33;54.48;100402.47;6090095;23;20593;-87
2023/02/27 17:26:51;;;;;;;4.88;3.40;;;;;;;-0.98;53.96;100461.19;6121189;23;20006;-87
2023/02/27 17:29:21;;;;;;;7.18;3.85;;;;;;;-0.85;54.54;100503.56;6124290;23;20022;-85
2023/02/27 17:31:56;;;;;;;7.28;3.90;;;;;;;-1.19;54.65;100438.91;6073212;23;20070;-86
2023/02/27 17:34:32;;;;;;;5.75;3.40;;;;;;;-1.11;54.49;100449.50;6073923;23;20030;-86
2023/02/27 17:37:21;;;;;;;8.73;3.78;;;;;;;-0.87;54.40;100505.16;6117292;23;20049;-88
2023/02/27 17:40:23;;;;;;;5.78;3.50;;;;;;;-1.39;54.48;100427.69;6121987;23;20026;-84
2023/02/27 17:42:54;;;;;;;6.07;3.65;;;;;;;-1.48;54.32;100415.34;6096220;23;20022;-86
2023/02/27 17:45:28;;;;;;;5.57;3.30;;;;;;;-1.51;55.18;100410.09;6096433;23;20016;-89
2023/02/27 17:48:21;;;;;;;7.57;4.05;;;;;;;-1.39;54.97;100438.81;6019738;23;20027;-86
2023/02/27 17:51:34;;;;;;;6.88;3.85;;;;;;;-1.00;55.25;100489.22;5968420;23;20061;-86
2023/02/27 17:54:40;;;;;;;6.40;3.38;;;;;;;-1.42;54.98;100415.66;6065248;23;20024;-89
2023/02/27 18:00:50;;;;;;;8.00;3.88;;;;;;;-1.63;55.14;100382.28;6125359;23;20108;-86
2023/02/27 18:15:11;;;;;;;6.57;3.45;;;;;;;-1.68;54.06;100364.19;6178973;23;20040;-90
2023/02/27 20:18:34;;;;;;;;;;;;;;;;;;;;;
2023/02/27 20:35:46;;;;;;;7.18;4.07;;;;;;;-3.52;56.04;100535.19;6175288;23;20483;-88
2023/02/27 20:42:21;;;;;;;5.32;3.40;;;;;;;-3.73;56.06;100548.38;6171163;23;20021;-86
2023/02/27 20:45:12;;;;;;;8.25;3.88;;;;;;;-4.05;56.20;100511.66;6153974;23;20061;-83
2023/02/27 20:51:07;;;;;;;;;;;;;;;;;;;;;
2023/02/27 20:55:49;;;;;;;;;;;;;;;-4.04;57.01;100549.03;6212029;23;20101;-88
2023/02/27 20:58:28;;;;;;;6.72;3.67;;;;;;;-4.28;56.67;100513.66;6191592;23;19904;-90
2023/02/27 21:05:17;;;;;;;7.13;3.75;;;;;;;-4.41;57.10;100529.81;6039464;23;20027;-88
2023/02/27 21:11:59;;;;;;;4.72;3.20;;;;;;;-5.04;57.66;100470.81;6037356;23;19999;-90
2023/02/27 21:17:49;;;;;;;7.30;3.78;;;;;;;-5.01;57.40;100465.06;6134158;23;20034;-84
2023/02/27 21:20:46;;;;;;;7.28;3.17;;;;;;;-5.52;57.49;100393.28;6124228;23;20058;-85
2023/02/27 21:23:19;;;;;;;7.35;3.88;;;;;;;-5.05;58.08;100468.19;6128207;23;20021;-83
2023/02/27 21:26:44;;;;;;;;;;;;;;;;;;;;;
2023/02/27 21:29:42;;;;;;;6.97;3.63;;;;;;;-5.21;57.74;100449.44;5931562;24;20088;-87
2023/02/27 21:47:29;;;;;;;;;;;;;;;;;;;;;
2023/02/27 21:50:30;;;;;;;;;;;;;;;;;;;;;
2023/02/27 21:53:20;;;;;;;7.60;3.70;;;;;;;-4.57;58.59;100555.94;6152193;23;20021;-89
2023/02/27 21:55:53;;;;;;;7.90;4.03;;;;;;;-4.72;58.49;100521.91;6125166;23;20264;-91
2023/02/27 21:58:55;;;;;;;8.63;4.18;;;;;;;-5.45;58.79;100414.06;6132278;23;20041;-89
2023/02/27 22:04:22;;;;;;;7.45;3.90;;;;;;;-4.75;59.03;100524.28;6131649;23;20068;-81
2023/02/27 22:06:51;;;;;;;8.32;4.30;;;;;;;-4.94;59.21;100500.22;6129878;23;20022;-83
2023/02/27 22:09:17;;;;;;;7.38;4.07;;;;;;;-4.69;59.24;100557.66;6108068;23;20069;-86
2023/02/27 22:11:45;;;;;;;8.40;4.45;;;;;;;-4.79;59.13;100533.34;6109592;23;20109;-85
2023/02/27 22:14:12;;;;;;;7.60;4.20;;;;;;;-4.88;59.31;100517.53;6088794;23;20028;-84
2023/02/27 22:16:41;;;;;;;6.75;3.90;;;;;;;-5.41;59.27;100432.91;6118699;23;20017;-84
2023/02/27 22:19:18;;;;;;;7.03;4.15;;;;;;;-4.93;59.08;100527.34;6066317;23;20084;-85
2023/02/27 22:21:45;;;;;;;8.98;4.35;;;;;;;-4.99;59.28;100539.69;6069427;23;20049;-83
2023/02/27 22:24:11;;;;;;;8.95;4.35;;;;;;;-5.31;59.91;100491.09;6096452;23;20021;-85
2023/02/27 22:26:44;;;;;;;11.00;4.55;;;;;;;-5.73;59.73;100451.06;6094150;23;20018;-87
2023/02/27 22:29:10;;;;;;;8.52;4.43;;;;;;;-5.71;60.23;100449.50;6058770;23;20018;-85
2023/02/27 22:31:37;;;;;;;7.75;4.10;;;;;;;-5.52;59.96;100477.84;6083318;23;20006;-86
2023/02/27 22:34:41;;;;;;;9.80;4.45;;;;;;;-5.31;60.42;100520.66;6066670;23;20022;-85
2023/02/27 22:37:27;;;;;;;10.80;4.30;;;;;;;-5.85;60.25;100425.75;6110913;23;20018;-85
2023/02/27 22:43:40;;;;;;;;;;;;;;;;;;;;;
2023/02/27 22:50:18;;;;;;;8.55;3.95;;;;;;;-5.29;60.91;100499.66;6033904;23;20023;-87
2023/02/27 22:52:55;;;;;;;9.30;4.18;;;;;;;-6.06;60.91;100375.41;6086626;23;20005;-85
2023/02/27 22:55:46;;;;;;;;;;;;;;;;;;;;;
2023/02/27 22:58:44;;;;;;;6.45;3.58;;;;;;;-4.97;60.79;100549.91;6148589;23;20018;-85
